Decoded Metar for CYDN (DAUPHIN in MB, CANADA) (IATA:YDN) | Meteo·Mobile Aviation Weather
aviador You're here:

CYDN Decoded Metar

DAUPHIN in MB, CANADA
Report Time2018-11-12 22:00:00
UTC Time2018-11-12 22:38:26
Flight Rules vfr VFR
Wind270° at 09 kt
W.Decomp.*RWY 26: 9.0 kt HW 0.5 kt RCW
RWY 32: 4.9 kt HW 7.5 kt LCW
RWY 20: 4.1 kt HW 8.0 kt RCW
W.Rank270° ranks 1
Current wind is below 270° avg. (10.4)
Visibility9999 m
Phenomena:N/A
Clouds:N/A
Expected CloudBase > 2,000 ft AGL from Temp-Dew spread
CeilingNone
Temp-13°C (ISA -26)
Dew Point-18°C (66% RH)
AAT-19.8°C
QNH1032 hPa
Density Alt-2,894 ft
Elevation1,001 ft
Report Wrong Elevation
Raw Report
CYDN 122200Z AUTO 27009KT 9SM CLR M13/M18 A3047 RMK SLP348=

Extra information for CYDN:More info

Metar Taf Metar & Taf Last 4 Metars F.Rules Stats Wind Profile Meteogram Temp Stats Airport Information Weather charts Add Link Nearby VenuesMetar ALERT Operation Metar Decoded Social comments